Time;durP1;ratioP1;P1;durP2;ratioP2;P2;SDS_P1;SDS_P2;PMS_P1;PMS_P2;Temp;Humidity;BMP_temperature;BMP_pressure;BME280_temperature;BME280_humidity;BME280_pressure;Samples;Min_cycle;Max_cycle;Signal;HPM_P1;HPM_P2
2023/07/16 00:00:09;;;;;;;10.65;2.70;;;16.60;99.90;;;;;;4890862;28;20107;-48
2023/07/16 00:02:37;;;;;;;8.95;2.65;;;16.60;99.90;;;;;;4888593;28;20257;-50
2023/07/16 00:05:03;;;;;;;9.90;2.42;;;16.50;99.90;;;;;;4868262;28;20866;-48
2023/07/16 00:07:29;;;;;;;8.32;2.75;;;16.50;99.90;;;;;;4869230;28;20054;-49
2023/07/16 00:09:58;;;;;;;6.85;2.55;;;16.50;99.90;;;;;;4902648;28;20637;-49
2023/07/16 00:12:23;;;;;;;9.85;2.90;;;16.50;99.90;;;;;;4872719;28;20510;-50
2023/07/16 00:14:49;;;;;;;11.60;2.63;;;16.40;99.90;;;;;;4889987;28;25978;-49
2023/07/16 00:17:15;;;;;;;9.52;2.78;;;16.50;99.90;;;;;;4887025;28;20625;-50
2023/07/16 00:19:41;;;;;;;12.73;2.75;;;16.40;99.90;;;;;;4868888;28;20123;-49
2023/07/16 00:22:07;;;;;;;10.48;3.08;;;16.40;99.90;;;;;;4869281;28;20209;-49
2023/07/16 00:24:33;;;;;;;9.85;3.00;;;16.40;99.90;;;;;;4890718;28;21275;-50
2023/07/16 00:26:58;;;;;;;12.90;2.80;;;16.40;99.90;;;;;;4891925;28;20732;-50
2023/07/16 00:29:24;;;;;;;9.32;2.78;;;16.40;99.90;;;;;;4872794;28;20160;-49
2023/07/16 00:31:50;;;;;;;12.48;3.17;;;16.40;99.90;;;;;;4884908;28;20065;-48
2023/07/16 00:34:16;;;;;;;12.30;2.90;;;16.40;99.90;;;;;;4870432;28;20059;-50
2023/07/16 00:36:41;;;;;;;12.52;3.20;;;16.30;99.90;;;;;;4869795;28;24897;-49
2023/07/16 00:39:07;;;;;;;11.57;2.95;;;16.40;99.90;;;;;;4893859;28;20041;-48
2023/07/16 00:41:33;;;;;;;15.70;3.55;;;16.30;99.90;;;;;;4888775;28;21333;-50
2023/07/16 00:43:58;;;;;;;13.18;3.08;;;16.30;99.90;;;;;;4857672;28;20069;-49
2023/07/16 00:46:25;;;;;;;15.05;3.20;;;16.30;99.90;;;;;;4890357;28;20423;-50
2023/07/16 00:48:51;;;;;;;13.55;3.47;;;16.30;99.90;;;;;;4889676;28;20041;-49
2023/07/16 00:51:18;;;;;;;8.50;2.97;;;16.40;99.90;;;;;;4887070;28;20127;-49
2023/07/16 00:53:45;;;;;;;11.27;3.47;;;16.30;99.90;;;;;;4866130;28;20607;-49
2023/07/16 00:56:13;;;;;;;13.07;3.20;;;16.30;99.90;;;;;;4887293;28;20493;-51
2023/07/16 00:58:38;;;;;;;10.60;3.30;;;16.30;99.90;;;;;;4867124;28;20934;-48
2023/07/16 01:01:04;;;;;;;12.60;3.00;;;16.30;99.90;;;;;;4889388;28;20038;-49
2023/07/16 01:03:30;;;;;;;11.05;3.45;;;16.30;99.90;;;;;;4889040;28;20041;-48
2023/07/16 01:06:14;;;;;;;11.80;3.20;;;16.30;99.90;;;;;;4899108;28;22146;-52
2023/07/16 01:08:49;;;;;;;11.18;3.20;;;16.20;99.90;;;;;;4892561;28;20601;-52
2023/07/16 01:11:15;;;;;;;11.10;3.50;;;16.20;99.90;;;;;;4903979;28;20049;-49
2023/07/16 01:13:42;;;;;;;11.05;3.33;;;16.20;99.90;;;;;;4876153;28;21507;-50
2023/07/16 01:16:22;;;;;;;13.95;3.60;;;16.20;99.90;;;;;;4896066;28;20056;-48
2023/07/16 01:18:48;;;;;;;9.10;3.03;;;16.30;99.90;;;;;;4896875;28;20054;-49
2023/07/16 01:21:15;;;;;;;21.25;4.05;;;16.30;99.90;;;;;;4891160;28;20531;-49
2023/07/16 01:24:11;;;;;;;17.00;3.85;;;16.30;99.90;;;;;;4865951;28;20898;-48
2023/07/16 01:26:57;;;;;;;13.45;3.45;;;16.30;99.90;;;;;;4892742;28;20890;-49
2023/07/16 01:29:37;;;;;;;11.57;3.35;;;16.30;99.90;;;;;;4891230;28;20060;-48
2023/07/16 01:32:05;;;;;;;12.77;3.60;;;16.40;99.90;;;;;;4882466;28;20088;-51
2023/07/16 01:34:33;;;;;;;12.73;3.60;;;16.40;99.90;;;;;;4865971;28;21056;-49
2023/07/16 01:37:03;;;;;;;12.43;3.80;;;16.40;99.90;;;;;;4889425;28;20172;-50
2023/07/16 01:39:30;;;;;;;15.75;3.90;;;16.40;99.90;;;;;;4882972;28;20428;-49
2023/07/16 01:41:56;;;;;;;11.73;3.35;;;16.40;99.90;;;;;;4865586;28;20049;-49
2023/07/16 01:44:22;;;;;;;16.33;3.10;;;16.40;99.90;;;;;;4867236;28;20439;-51
2023/07/16 01:47:13;;;;;;;8.60;2.70;;;16.50;99.90;;;;;;4880297;28;20669;-48
2023/07/16 01:49:41;;;;;;;14.90;3.03;;;16.50;99.90;;;;;;4878242;28;21279;-50
2023/07/16 01:52:07;;;;;;;12.20;2.88;;;16.50;99.90;;;;;;4883762;28;21016;-49
2023/07/16 01:54:33;;;;;;;13.80;3.15;;;16.50;99.90;;;;;;4882803;28;20033;-49
2023/07/16 01:56:59;;;;;;;9.27;2.78;;;16.50;99.90;;;;;;4865791;28;20068;-47
2023/07/16 01:59:24;;;;;;;9.75;3.03;;;16.50;99.90;;;;;;4889034;28;20043;-49
2023/07/16 02:01:50;;;;;;;11.82;3.40;;;16.50;99.90;;;;;;4887808;28;20501;-50
2023/07/16 02:04:16;;;;;;;11.40;3.17;;;16.50;99.90;;;;;;4882023;28;20037;-48
2023/07/16 02:06:41;;;;;;;9.93;3.05;;;16.50;99.90;;;;;;4868644;28;20155;-48
2023/07/16 02:09:09;;;;;;;8.70;2.35;;;16.50;99.90;;;;;;4883786;28;20398;-48
2023/07/16 02:11:35;;;;;;;10.85;2.80;;;16.60;99.90;;;;;;4889162;28;20449;-49
2023/07/16 02:14:01;;;;;;;10.57;2.53;;;16.60;99.90;;;;;;4878864;28;20731;-49
2023/07/16 02:16:26;;;;;;;9.48;2.83;;;16.50;99.90;;;;;;4877957;28;21056;-49
2023/07/16 02:18:52;;;;;;;16.15;2.53;;;16.60;99.90;;;;;;4884631;28;20045;-50
2023/07/16 02:21:18;;;;;;;12.18;2.90;;;16.50;99.90;;;;;;4860803;28;20189;-48
2023/07/16 02:23:44;;;;;;;10.35;3.05;;;16.50;99.90;;;;;;4881405;28;20367;-49
2023/07/16 02:26:10;;;;;;;11.32;3.13;;;16.50;99.90;;;;;;4863675;28;20045;-48
2023/07/16 02:28:35;;;;;;;11.30;4.10;;;16.50;99.90;;;;;;4861054;28;20077;-49
2023/07/16 02:31:02;;;;;;;9.40;3.35;;;16.50;99.90;;;;;;4895583;28;20343;-49
2023/07/16 02:33:28;;;;;;;9.50;3.15;;;16.50;99.90;;;;;;4887406;28;20407;-48
2023/07/16 02:35:54;;;;;;;14.40;3.47;;;16.50;99.90;;;;;;4882687;28;20784;-49
2023/07/16 02:38:20;;;;;;;8.40;3.47;;;16.50;99.90;;;;;;4857394;28;20517;-50
2023/07/16 02:40:47;;;;;;;9.68;3.53;;;16.50;99.90;;;;;;4887181;28;20046;-49
2023/07/16 02:43:13;;;;;;;11.70;3.45;;;16.50;99.90;;;;;;4885962;28;20049;-48
2023/07/16 02:45:39;;;;;;;7.65;3.50;;;16.40;99.90;;;;;;4884819;28;20587;-48
2023/07/16 02:48:06;;;;;;;11.88;3.67;;;16.40;99.90;;;;;;4866614;28;20095;-48
2023/07/16 02:50:35;;;;;;;10.43;3.60;;;16.40;99.90;;;;;;4886752;28;25460;-49
2023/07/16 02:53:02;;;;;;;11.13;3.92;;;16.40;99.90;;;;;;4888797;28;21406;-48
2023/07/16 02:55:28;;;;;;;10.95;4.15;;;16.40;99.90;;;;;;4890088;28;20044;-49
2023/07/16 02:57:54;;;;;;;11.65;3.53;;;16.40;99.90;;;;;;4864183;28;20462;-48
2023/07/16 03:00:20;;;;;;;12.10;3.50;;;16.40;99.90;;;;;;4857484;28;21072;-50
2023/07/16 03:02:45;;;;;;;8.02;3.83;;;16.40;99.90;;;;;;4886654;28;21318;-47
2023/07/16 03:05:11;;;;;;;12.73;3.80;;;16.40;99.90;;;;;;4868097;28;20052;-50
2023/07/16 03:07:37;;;;;;;10.88;3.58;;;16.40;99.90;;;;;;4892930;28;20038;-49
2023/07/16 03:10:03;;;;;;;10.02;3.92;;;16.40;99.90;;;;;;4889772;28;20385;-48
2023/07/16 03:12:29;;;;;;;10.30;3.83;;;16.40;99.90;;;;;;4883553;28;21417;-49
2023/07/16 03:14:54;;;;;;;11.73;3.80;;;16.40;99.90;;;;;;4884384;28;20604;-48
2023/07/16 03:17:21;;;;;;;10.77;3.95;;;16.40;99.90;;;;;;4896600;28;20049;-48
2023/07/16 03:19:48;;;;;;;14.32;4.57;;;16.40;99.90;;;;;;4864956;28;20061;-47
2023/07/16 03:22:14;;;;;;;10.57;4.00;;;16.40;99.90;;;;;;4889032;28;20592;-47
2023/07/16 03:24:40;;;;;;;9.57;3.70;;;16.40;99.90;;;;;;4892580;28;20568;-48
2023/07/16 03:27:06;;;;;;;10.20;4.10;;;16.40;99.90;;;;;;4881192;28;20041;-48
2023/07/16 03:29:33;;;;;;;9.65;4.00;;;16.40;99.90;;;;;;4896043;28;21136;-48
2023/07/16 03:31:59;;;;;;;12.05;3.80;;;16.30;99.90;;;;;;4876150;28;20490;-49
2023/07/16 03:34:25;;;;;;;11.00;4.25;;;16.30;99.90;;;;;;4865010;28;21285;-49
2023/07/16 03:36:51;;;;;;;12.82;4.00;;;16.40;99.90;;;;;;4881265;28;20961;-48
2023/07/16 03:39:17;;;;;;;11.27;4.10;;;16.30;99.90;;;;;;4885243;28;20622;-47
2023/07/16 03:41:43;;;;;;;10.68;4.05;;;16.30;99.90;;;;;;4888454;28;20508;-47
2023/07/16 03:44:10;;;;;;;9.73;4.15;;;16.30;99.90;;;;;;4897453;28;21114;-48
2023/07/16 03:46:35;;;;;;;12.48;4.78;;;16.30;99.90;;;;;;4874272;28;20942;-48
2023/07/16 03:49:01;;;;;;;13.45;4.20;;;16.30;99.90;;;;;;4891814;28;20444;-49
2023/07/16 03:51:27;;;;;;;12.57;4.25;;;16.30;99.90;;;;;;4894524;28;20631;-48
2023/07/16 03:53:53;;;;;;;14.00;4.40;;;16.30;99.90;;;;;;4878213;28;20084;-48
2023/07/16 03:56:19;;;;;;;10.75;4.32;;;16.30;99.90;;;;;;4901031;28;20045;-48
2023/07/16 03:58:44;;;;;;;10.73;4.10;;;16.30;99.90;;;;;;4898294;28;20360;-48
2023/07/16 04:01:10;;;;;;;9.68;4.53;;;16.30;99.90;;;;;;4895377;28;20041;-49
2023/07/16 04:03:36;;;;;;;12.93;4.45;;;16.30;99.90;;;;;;4894758;28;20490;-48
2023/07/16 04:06:09;;;;;;;11.38;4.75;;;16.30;99.90;;;;;;4889861;28;20557;-51
2023/07/16 04:08:34;;;;;;;;;;;16.30;99.90;;;;;;4877896;28;20441;-48
2023/07/16 04:11:01;;;;;;;8.82;4.20;;;16.30;99.90;;;;;;4874965;28;20298;-49
2023/07/16 04:13:27;;;;;;;13.27;4.70;;;16.30;99.90;;;;;;4896545;28;20038;-47
2023/07/16 04:15:54;;;;;;;11.65;4.28;;;16.30;99.90;;;;;;4874814;28;20527;-49
2023/07/16 04:18:21;;;;;;;13.95;5.30;;;16.30;99.90;;;;;;4892118;28;20634;-48
2023/07/16 04:20:47;;;;;;;11.45;5.07;;;16.40;99.90;;;;;;4893553;28;20840;-48
2023/07/16 04:23:12;;;;;;;13.20;5.28;;;16.30;99.90;;;;;;4886548;28;20107;-49
2023/07/16 04:25:38;;;;;;;14.38;5.68;;;16.40;99.90;;;;;;4891339;28;20045;-47
2023/07/16 04:28:04;;;;;;;12.73;4.80;;;16.40;99.90;;;;;;4892464;28;20177;-49
2023/07/16 04:30:30;;;;;;;10.45;5.32;;;16.40;99.90;;;;;;4875740;28;21606;-49
2023/07/16 04:32:56;;;;;;;14.05;5.03;;;16.40;99.90;;;;;;4887494;28;20068;-48
2023/07/16 04:35:21;;;;;;;14.75;5.30;;;16.40;99.90;;;;;;4892116;28;20777;-47
2023/07/16 04:37:47;;;;;;;16.25;5.38;;;16.50;99.90;;;;;;4894005;28;20137;-48
2023/07/16 04:40:13;;;;;;;12.82;5.05;;;16.50;99.90;;;;;;4893040;28;20041;-47
2023/07/16 04:42:38;;;;;;;13.38;5.22;;;16.50;99.90;;;;;;4890758;28;20393;-47
2023/07/16 04:45:05;;;;;;;19.58;4.78;;;16.50;99.90;;;;;;4883312;28;20048;-47
2023/07/16 04:47:31;;;;;;;15.32;5.03;;;16.50;99.90;;;;;;4861251;28;20291;-46
2023/07/16 04:50:00;;;;;;;16.92;5.28;;;16.60;99.90;;;;;;4872738;28;20055;-48
2023/07/16 04:52:26;;;;;;;15.43;5.82;;;16.60;99.90;;;;;;4898984;28;20360;-48
2023/07/16 04:54:52;;;;;;;14.93;5.82;;;16.70;99.90;;;;;;4906458;28;20533;-48
2023/07/16 04:57:17;;;;;;;13.02;5.80;;;16.70;99.90;;;;;;4893901;28;20556;-48
2023/07/16 04:59:43;;;;;;;12.68;5.38;;;16.70;99.90;;;;;;4902778;28;20971;-48
2023/07/16 05:02:09;;;;;;;15.77;5.30;;;16.70;99.90;;;;;;4904465;28;20716;-48
2023/07/16 05:04:35;;;;;;;18.30;6.22;;;16.80;99.90;;;;;;4907239;28;20639;-48
2023/07/16 05:07:04;;;;;;;15.05;5.93;;;16.80;99.90;;;;;;4902697;28;21458;-48
2023/07/16 05:09:30;;;;;;;12.68;5.75;;;16.80;99.90;;;;;;4900638;28;20511;-49
2023/07/16 05:11:56;;;;;;;14.32;5.90;;;16.90;99.90;;;;;;4896463;28;20037;-47
2023/07/16 05:14:22;;;;;;;12.65;5.78;;;16.90;99.90;;;;;;4888052;28;20079;-47
2023/07/16 05:16:48;;;;;;;16.38;6.30;;;17.00;99.90;;;;;;4857986;28;20045;-49
2023/07/16 05:19:13;;;;;;;14.10;6.68;;;17.10;99.90;;;;;;4889605;28;20458;-48
2023/07/16 05:21:39;;;;;;;14.00;5.38;;;17.20;99.90;;;;;;4894848;28;20130;-49
2023/07/16 05:24:05;;;;;;;15.15;5.38;;;17.20;99.90;;;;;;4891475;28;20041;-48
2023/07/16 05:26:33;;;;;;;18.75;5.55;;;17.30;99.90;;;;;;4871788;28;20040;-48
2023/07/16 05:28:58;;;;;;;14.82;5.65;;;17.30;99.90;;;;;;4855106;28;20455;-48
2023/07/16 05:31:24;;;;;;;14.45;5.18;;;17.40;99.90;;;;;;4884810;28;20839;-48
2023/07/16 05:33:50;;;;;;;17.25;5.50;;;17.50;99.90;;;;;;4870594;28;20049;-48
2023/07/16 05:36:16;;;;;;;14.18;5.00;;;17.50;99.90;;;;;;4883330;28;20049;-49
2023/07/16 05:38:41;;;;;;;13.57;5.32;;;17.60;99.90;;;;;;4883844;28;21491;-48
2023/07/16 05:41:07;;;;;;;14.57;4.80;;;17.60;99.90;;;;;;4883809;28;20758;-48
2023/07/16 05:43:33;;;;;;;13.27;4.72;;;17.70;99.90;;;;;;4890992;28;20155;-48
2023/07/16 05:45:58;;;;;;;14.82;4.80;;;17.70;99.90;;;;;;4865413;28;20672;-49
2023/07/16 05:48:24;;;;;;;11.88;4.50;;;17.70;99.90;;;;;;4886537;28;20049;-48
2023/07/16 05:50:50;;;;;;;12.10;4.43;;;17.70;99.90;;;;;;4890481;28;20041;-48
2023/07/16 05:53:16;;;;;;;13.52;5.45;;;17.70;99.90;;;;;;4883771;28;24891;-48
2023/07/16 05:55:42;;;;;;;12.02;4.35;;;17.80;99.90;;;;;;4883457;28;20622;-49
2023/07/16 05:58:08;;;;;;;7.88;4.18;;;17.80;99.90;;;;;;4853264;28;21042;-48
2023/07/16 06:00:35;;;;;;;13.25;4.80;;;17.80;99.90;;;;;;4883032;28;21560;-50
2023/07/16 06:03:02;;;;;;;16.58;4.78;;;17.90;99.90;;;;;;4866868;28;20684;-49
2023/07/16 06:05:32;;;;;;;11.98;4.45;;;17.90;99.90;;;;;;4879459;28;20048;-49
2023/07/16 06:07:58;;;;;;;12.45;4.50;;;18.00;99.90;;;;;;4881714;28;20695;-47
2023/07/16 06:10:24;;;;;;;13.93;4.65;;;18.00;99.90;;;;;;4888427;28;20586;-48
2023/07/16 06:12:49;;;;;;;9.00;4.00;;;18.00;99.90;;;;;;4883326;28;24862;-49
2023/07/16 06:15:15;;;;;;;11.98;4.25;;;18.00;99.90;;;;;;4881425;28;20419;-48
2023/07/16 06:17:41;;;;;;;10.48;4.38;;;18.00;99.90;;;;;;4892364;28;20455;-47
2023/07/16 06:20:08;;;;;;;11.52;4.30;;;18.00;99.90;;;;;;4858447;28;20151;-50
2023/07/16 06:22:33;;;;;;;12.52;4.93;;;18.00;99.90;;;;;;4886082;28;24875;-49
2023/07/16 06:24:59;;;;;;;15.43;4.60;;;18.10;99.90;;;;;;4882374;28;20619;-49
2023/07/16 06:27:25;;;;;;;10.23;4.30;;;18.20;99.90;;;;;;4838736;28;20171;-49
2023/07/16 06:29:51;;;;;;;15.20;5.20;;;18.20;99.90;;;;;;4888652;28;20874;-46
2023/07/16 06:32:17;;;;;;;16.10;4.60;;;18.20;99.90;;;;;;4887519;28;20708;-47
2023/07/16 06:34:43;;;;;;;12.10;4.88;;;18.10;99.90;;;;;;4872966;28;21141;-48
2023/07/16 06:37:09;;;;;;;12.32;4.22;;;18.00;99.90;;;;;;4887857;28;20728;-48
2023/07/16 06:39:35;;;;;;;12.82;4.90;;;18.00;99.90;;;;;;4887175;28;20589;-49
2023/07/16 06:42:01;;;;;;;11.70;5.03;;;18.00;99.90;;;;;;4858682;28;20524;-48
2023/07/16 06:44:26;;;;;;;13.52;4.40;;;18.00;99.90;;;;;;4908406;28;20046;-48
2023/07/16 06:46:52;;;;;;;12.95;4.70;;;18.10;99.90;;;;;;4889500;28;20046;-49
2023/07/16 06:49:18;;;;;;;14.95;5.18;;;18.10;99.90;;;;;;4856479;28;20444;-48
2023/07/16 06:51:44;;;;;;;13.25;5.28;;;18.20;99.90;;;;;;4883213;28;20045;-49
2023/07/16 06:54:10;;;;;;;15.00;5.10;;;18.20;99.90;;;;;;4839275;28;20077;-49
2023/07/16 06:56:36;;;;;;;11.73;4.85;;;18.20;99.90;;;;;;4888822;28;20436;-48
2023/07/16 06:59:02;;;;;;;12.25;5.07;;;18.20;99.90;;;;;;4973489;28;20061;-49
2023/07/16 07:01:28;;;;;;;13.13;4.80;;;18.20;99.90;;;;;;4987642;28;20056;-48
2023/07/16 07:03:54;;;;;;;11.70;4.88;;;18.20;99.90;;;;;;4991140;28;20041;-49
2023/07/16 07:06:21;;;;;;;11.02;4.60;;;18.20;99.90;;;;;;4992257;28;20515;-49
2023/07/16 07:08:47;;;;;;;12.32;5.47;;;18.20;99.90;;;;;;5011106;28;20076;-51
2023/07/16 07:11:13;;;;;;;10.05;5.25;;;18.30;99.90;;;;;;5001922;28;20045;-48
2023/07/16 07:13:38;;;;;;;10.18;5.28;;;18.30;99.90;;;;;;5014063;28;20037;-49
2023/07/16 07:16:04;;;;;;;12.60;5.22;;;18.40;99.90;;;;;;5013130;28;20057;-47
2023/07/16 07:18:30;;;;;;;12.60;5.35;;;18.50;99.90;;;;;;5017092;28;20507;-47
2023/07/16 07:20:56;;;;;;;9.38;4.93;;;18.50;99.90;;;;;;5014004;28;20033;-49
2023/07/16 07:23:21;;;;;;;12.00;4.65;;;18.60;99.90;;;;;;4997128;28;20037;-48
2023/07/16 07:25:51;;;;;;;17.00;4.95;;;18.60;99.90;;;;;;5010789;28;20382;-50
2023/07/16 07:28:17;;;;;;;13.80;5.55;;;18.60;99.90;;;;;;4998744;28;20042;-47
2023/07/16 07:30:44;;;;;;;12.00;4.85;;;18.70;99.90;;;;;;5014586;28;20143;-49
2023/07/16 07:33:10;;;;;;;11.85;5.00;;;18.70;99.90;;;;;;5012261;28;20144;-47
2023/07/16 07:35:36;;;;;;;12.05;5.30;;;18.70;99.90;;;;;;5014891;28;20148;-48
2023/07/16 07:38:02;;;;;;;9.80;4.70;;;18.60;99.90;;;;;;5015161;28;20107;-49
2023/07/16 07:40:27;;;;;;;12.63;5.65;;;18.50;99.90;;;;;;5004731;28;20065;-48
2023/07/16 07:42:53;;;;;;;11.73;5.22;;;18.40;99.90;;;;;;5009225;28;20546;-48
2023/07/16 07:45:19;;;;;;;12.93;5.30;;;18.40;99.90;;;;;;5009260;28;20132;-46
2023/07/16 07:47:44;;;;;;;11.80;5.05;;;18.60;99.90;;;;;;4985373;28;20045;-49
2023/07/16 07:50:10;;;;;;;13.52;5.25;;;18.60;99.90;;;;;;4987556;28;20052;-48
2023/07/16 07:52:36;;;;;;;10.80;5.22;;;18.70;99.90;;;;;;5010090;28;20041;-48
2023/07/16 07:55:02;;;;;;;12.90;4.90;;;18.70;99.90;;;;;;5010133;28;20054;-47
2023/07/16 07:57:29;;;;;;;14.18;5.57;;;18.60;99.90;;;;;;5009824;28;20054;-47
2023/07/16 07:59:57;;;;;;;11.10;5.20;;;18.60;99.90;;;;;;5011758;28;20038;-47
2023/07/16 08:02:26;;;;;;;11.65;5.38;;;18.60;99.90;;;;;;4996158;28;20030;-47
2023/07/16 08:04:55;;;;;;;13.35;5.15;;;18.50;99.90;;;;;;5011322;28;20041;-49
2023/07/16 08:07:25;;;;;;;13.68;5.13;;;18.60;99.90;;;;;;5012554;28;20049;-46
2023/07/16 08:09:51;;;;;;;13.50;4.97;;;18.70;99.90;;;;;;5012485;28;20071;-49
2023/07/16 08:12:17;;;;;;;13.15;5.07;;;18.80;99.90;;;;;;5009791;28;20046;-49
2023/07/16 08:14:43;;;;;;;12.85;5.40;;;18.80;99.90;;;;;;5004203;28;20033;-48
2023/07/16 08:17:08;;;;;;;11.93;5.40;;;18.80;99.90;;;;;;4997455;28;20049;-46
2023/07/16 08:19:34;;;;;;;14.80;4.95;;;18.90;99.90;;;;;;5011384;28;20045;-48
2023/07/16 08:22:00;;;;;;;11.07;4.90;;;18.90;99.90;;;;;;5007786;28;20042;-48
2023/07/16 08:24:25;;;;;;;13.02;5.70;;;18.90;99.90;;;;;;5005658;28;20044;-49
2023/07/16 08:26:51;;;;;;;11.07;4.65;;;18.90;99.90;;;;;;5014102;28;20041;-49
2023/07/16 08:29:17;;;;;;;10.95;5.00;;;18.90;99.90;;;;;;5016133;28;20052;-48
2023/07/16 08:31:43;;;;;;;12.77;4.72;;;18.90;99.90;;;;;;5013858;28;20076;-48
2023/07/16 08:34:08;;;;;;;11.15;5.00;;;19.00;99.90;;;;;;4992437;28;20135;-48
2023/07/16 08:36:34;;;;;;;10.68;5.28;;;18.90;99.90;;;;;;4996856;28;20056;-48
2023/07/16 08:39:00;;;;;;;12.70;5.10;;;18.80;99.90;;;;;;4994512;28;20042;-53
2023/07/16 08:41:26;;;;;;;15.85;5.05;;;18.70;99.90;;;;;;5015424;28;20120;-48
2023/07/16 08:43:52;;;;;;;13.15;5.50;;;18.60;99.90;;;;;;5012701;28;20037;-50
2023/07/16 08:46:18;;;;;;;13.45;5.55;;;18.60;99.90;;;;;;4996810;28;20472;-49
2023/07/16 08:48:45;;;;;;;9.32;5.20;;;18.70;99.90;;;;;;5000076;28;20427;-55
2023/07/16 08:51:14;;;;;;;14.02;5.65;;;18.90;99.90;;;;;;5014065;28;20156;-53
2023/07/16 08:53:40;;;;;;;13.32;5.38;;;19.10;99.90;;;;;;5014610;28;20315;-51
2023/07/16 08:56:06;;;;;;;15.40;5.45;;;19.30;99.90;;;;;;5001200;28;20042;-50
2023/07/16 08:58:32;;;;;;;14.43;5.90;;;19.40;99.90;;;;;;5014086;28;20107;-55
2023/07/16 09:01:00;;;;;;;14.10;5.60;;;19.50;99.90;;;;;;5012894;28;20450;-53
2023/07/16 09:03:26;;;;;;;13.30;5.20;;;19.70;99.90;;;;;;5014687;28;20048;-51
2023/07/16 09:05:53;;;;;;;11.38;5.80;;;19.90;99.90;;;;;;5012453;28;20069;-53
2023/07/16 09:08:19;;;;;;;12.57;5.40;;;20.10;99.90;;;;;;4996000;28;20463;-55
2023/07/16 09:10:56;;;;;;;12.38;5.28;;;20.30;99.90;;;;;;5006683;28;20041;-54
2023/07/16 09:13:26;;;;;;;18.52;5.70;;;20.30;99.70;;;;;;5008631;28;20130;-56
2023/07/16 09:15:53;;;;;;;12.02;5.68;;;20.30;99.30;;;;;;4977893;28;20056;-53
2023/07/16 09:18:24;;;;;;;10.10;4.55;;;20.40;99.20;;;;;;5009127;28;20042;-56
2023/07/16 09:20:56;;;;;;;12.95;4.82;;;20.50;99.20;;;;;;5011709;28;20145;-55
2023/07/16 09:23:29;;;;;;;9.27;4.15;;;20.60;98.70;;;;;;5004742;28;20475;-55
2023/07/16 09:25:55;;;;;;;11.18;4.35;;;20.70;97.80;;;;;;5001145;28;20056;-56
2023/07/16 09:28:21;;;;;;;10.45;4.20;;;20.70;97.30;;;;;;4982586;28;20049;-55
2023/07/16 09:30:48;;;;;;;11.07;4.50;;;20.70;96.80;;;;;;4998671;28;20184;-57
2023/07/16 09:33:15;;;;;;;13.25;4.78;;;20.60;96.60;;;;;;4998578;28;20066;-54
2023/07/16 09:35:43;;;;;;;12.00;4.55;;;20.50;96.70;;;;;;4999711;28;20049;-55
2023/07/16 09:38:09;;;;;;;10.40;4.68;;;20.40;97.00;;;;;;4995958;28;20825;-55
2023/07/16 09:40:37;;;;;;;9.10;4.68;;;20.40;97.10;;;;;;5007700;28;20814;-55
2023/07/16 09:43:04;;;;;;;11.50;4.75;;;20.40;97.30;;;;;;5003573;28;20068;-54
2023/07/16 09:45:30;;;;;;;12.27;4.88;;;20.50;97.20;;;;;;4992484;28;20051;-55
2023/07/16 09:47:56;;;;;;;8.90;4.45;;;20.70;97.50;;;;;;5005042;28;20534;-54
2023/07/16 09:50:29;;;;;;;9.98;4.57;;;20.90;96.90;;;;;;5008996;28;20050;-55
2023/07/16 09:52:57;;;;;;;16.17;4.85;;;21.00;96.40;;;;;;4991148;28;20080;-55
2023/07/16 09:55:23;;;;;;;11.02;4.20;;;21.00;96.30;;;;;;5002140;28;20543;-56
2023/07/16 09:57:51;;;;;;;11.65;4.65;;;21.00;96.40;;;;;;4989028;28;20064;-55
2023/07/16 10:00:18;;;;;;;13.48;4.97;;;21.00;96.10;;;;;;4999535;28;20052;-54
2023/07/16 10:02:44;;;;;;;8.60;4.65;;;21.10;96.20;;;;;;4985784;28;20087;-55
2023/07/16 10:05:18;;;;;;;15.80;4.90;;;21.30;96.60;;;;;;5005190;28;20048;-56
2023/07/16 10:07:51;;;;;;;9.85;4.10;;;21.50;96.30;;;;;;5003412;28;20049;-55
2023/07/16 10:10:17;;;;;;;11.18;4.40;;;21.70;96.20;;;;;;5003387;28;20046;-54
2023/07/16 10:12:54;;;;;;;7.65;4.20;;;21.90;95.50;;;;;;5005091;28;20493;-56
2023/07/16 10:15:27;;;;;;;9.88;3.88;;;21.90;94.80;;;;;;4977267;28;20052;-53
2023/07/16 10:17:53;;;;;;;8.45;4.38;;;21.90;94.30;;;;;;5001444;28;20038;-55
2023/07/16 10:20:32;;;;;;;9.15;4.60;;;21.70;94.10;;;;;;5007329;28;20042;-55
2023/07/16 10:22:59;;;;;;;11.55;4.05;;;21.60;93.80;;;;;;4992348;28;20067;-54
2023/07/16 10:25:29;;;;;;;8.18;4.07;;;21.30;93.70;;;;;;4984921;28;20616;-55
2023/07/16 10:27:55;;;;;;;10.70;4.28;;;21.30;93.60;;;;;;5001202;28;20042;-55
2023/07/16 10:30:21;;;;;;;9.32;4.60;;;21.20;93.30;;;;;;5000076;28;20556;-55
2023/07/16 10:32:47;;;;;;;9.80;4.43;;;21.30;93.60;;;;;;5003407;28;20467;-56
2023/07/16 10:35:14;;;;;;;8.23;4.32;;;21.30;93.90;;;;;;4999184;28;20060;-55
2023/07/16 10:37:40;;;;;;;11.50;4.60;;;21.30;93.60;;;;;;4986098;28;20179;-53
2023/07/16 10:40:11;;;;;;;12.38;4.15;;;21.30;93.50;;;;;;5003255;28;20056;-55
2023/07/16 10:42:37;;;;;;;8.15;4.25;;;21.10;93.30;;;;;;5000398;28;20049;-56
2023/07/16 10:45:04;;;;;;;11.55;4.40;;;21.00;93.60;;;;;;5005944;28;20574;-54
2023/07/16 10:47:32;;;;;;;15.32;5.05;;;20.80;93.50;;;;;;5002252;28;20552;-53
2023/07/16 10:49:58;;;;;;;12.10;4.72;;;20.80;93.80;;;;;;4983880;28;20141;-53
2023/07/16 10:52:24;;;;;;;11.82;4.88;;;20.80;94.10;;;;;;5002364;28;20037;-55
2023/07/16 10:54:54;;;;;;;10.65;4.68;;;20.90;94.20;;;;;;5004984;28;20044;-56
2023/07/16 10:57:24;;;;;;;11.10;4.72;;;21.30;94.80;;;;;;5000768;28;20717;-55
2023/07/16 10:59:51;;;;;;;13.75;4.40;;;21.60;93.90;;;;;;5003323;28;20096;-55
2023/07/16 11:02:18;;;;;;;8.05;4.10;;;21.70;93.30;;;;;;5002437;28;20392;-56
2023/07/16 11:04:45;;;;;;;8.15;4.25;;;21.70;93.40;;;;;;4983909;28;20045;-55
2023/07/16 11:07:13;;;;;;;10.15;4.05;;;21.70;92.80;;;;;;5002420;28;20133;-56
2023/07/16 11:09:47;;;;;;;9.20;4.00;;;21.70;92.20;;;;;;4986934;28;20626;-55
2023/07/16 11:12:14;;;;;;;9.52;3.95;;;21.60;91.90;;;;;;4998788;28;20049;-54
2023/07/16 11:14:45;;;;;;;9.65;4.13;;;21.60;92.10;;;;;;5001834;28;20044;-56
2023/07/16 11:17:12;;;;;;;12.10;4.00;;;21.50;92.50;;;;;;5000377;28;20068;-55
2023/07/16 11:19:38;;;;;;;11.65;4.18;;;21.60;92.70;;;;;;5001655;28;21724;-55
2023/07/16 11:22:07;;;;;;;9.60;4.00;;;21.60;92.40;;;;;;4997617;28;20037;-55
2023/07/16 11:24:46;;;;;;;9.93;3.95;;;21.60;92.20;;;;;;4989098;28;20037;-52
2023/07/16 11:27:17;;;;;;;14.48;4.43;;;21.70;92.00;;;;;;4989424;28;20033;-56
2023/07/16 11:29:55;;;;;;;8.50;4.00;;;21.70;92.10;;;;;;5002138;28;20268;-56
2023/07/16 11:32:31;;;;;;;13.18;4.82;;;21.60;91.90;;;;;;4999703;28;20069;-55
2023/07/16 11:34:58;;;;;;;7.10;3.65;;;21.50;91.70;;;;;;5000160;28;20136;-56
2023/07/16 11:37:28;;;;;;;10.00;4.05;;;21.30;91.80;;;;;;5001052;28;20049;-54
2023/07/16 11:40:05;;;;;;;8.27;3.95;;;21.20;92.10;;;;;;5004628;28;20069;-56
2023/07/16 11:42:39;;;;;;;8.18;3.83;;;21.30;93.00;;;;;;5002374;28;20412;-55
2023/07/16 11:45:16;;;;;;;9.20;3.88;;;21.60;93.30;;;;;;4987856;28;20120;-55
2023/07/16 11:47:42;;;;;;;8.55;3.50;;;22.10;92.80;;;;;;5003068;28;20044;-56
2023/07/16 11:50:08;;;;;;;9.30;4.03;;;22.20;91.70;;;;;;5003242;28;20042;-53
2023/07/16 11:52:34;;;;;;;12.43;4.65;;;22.10;91.40;;;;;;5001414;28;20435;-56
2023/07/16 11:55:00;;;;;;;8.85;4.07;;;21.90;91.60;;;;;;5004260;28;20053;-54
2023/07/16 11:57:26;;;;;;;7.80;3.58;;;21.70;91.60;;;;;;4983286;28;20547;-54
2023/07/16 11:59:52;;;;;;;7.30;3.95;;;21.60;91.80;;;;;;5002759;28;20037;-55
2023/07/16 12:02:18;;;;;;;11.77;3.95;;;21.50;92.50;;;;;;5003656;28;20034;-54
2023/07/16 12:04:43;;;;;;;11.02;4.32;;;21.50;92.50;;;;;;4972691;28;20119;-55
2023/07/16 12:07:09;;;;;;;10.50;4.10;;;21.60;92.80;;;;;;5003891;28;20042;-56
2023/07/16 12:09:35;;;;;;;10.40;4.60;;;21.70;92.80;;;;;;5002663;28;20049;-55
2023/07/16 12:12:02;;;;;;;10.80;4.60;;;21.70;92.80;;;;;;5003632;28;20396;-54
2023/07/16 12:14:28;;;;;;;9.73;4.47;;;21.80;92.90;;;;;;5001813;28;20435;-55
2023/07/16 12:16:54;;;;;;;11.65;4.78;;;21.80;92.70;;;;;;5001881;28;20041;-55
2023/07/16 12:19:19;;;;;;;13.45;4.95;;;21.80;92.70;;;;;;4998912;28;20092;-56
2023/07/16 12:21:45;;;;;;;11.18;4.82;;;22.00;92.70;;;;;;5003732;28;20052;-55
2023/07/16 12:24:11;;;;;;;8.18;4.53;;;22.10;92.40;;;;;;5001708;28;20124;-55
2023/07/16 12:26:37;;;;;;;13.38;4.70;;;22.00;92.10;;;;;;4996891;28;20038;-55
2023/07/16 12:29:03;;;;;;;11.68;4.43;;;21.90;92.00;;;;;;5001719;28;20403;-56
2023/07/16 12:31:31;;;;;;;10.02;4.40;;;21.70;92.10;;;;;;5002801;28;20831;-54
2023/07/16 12:33:57;;;;;;;9.13;5.00;;;21.70;92.60;;;;;;5006857;28;20116;-55
2023/07/16 12:36:23;;;;;;;12.43;5.15;;;21.80;93.00;;;;;;4996809;28;20077;-54